createdAt,value
2022-08-02T00:00:05.552Z,1
2022-08-02T00:02:01.537Z,1
2022-08-02T00:04:01.217Z,1
2022-08-02T00:06:02.193Z,1
2022-08-02T00:08:01.958Z,1
2022-08-02T00:10:02.007Z,1
2022-08-02T00:12:02.218Z,1
2022-08-02T00:14:02.149Z,1
2022-08-02T00:16:01.885Z,1
2022-08-02T00:18:02.240Z,1
2022-08-02T00:20:01.906Z,1
2022-08-02T00:22:05.253Z,1
2022-08-02T00:24:28.466Z,1
2022-08-02T00:26:01.861Z,1
2022-08-02T00:28:05.155Z,1
2022-08-02T00:30:01.629Z,1
2022-08-02T00:32:01.921Z,1
2022-08-02T00:34:05.470Z,1
2022-08-02T00:36:02.010Z,1
2022-08-02T00:38:01.540Z,1
2022-08-02T00:40:08.555Z,1
2022-08-02T00:42:01.858Z,1
2022-08-02T00:44:02.233Z,1
2022-08-02T00:46:04.352Z,1
2022-08-02T00:48:02.293Z,1
2022-08-02T00:52:01.860Z,1
2022-08-02T00:54:02.183Z,1
2022-08-02T00:56:02.072Z,1
2022-08-02T00:58:01.999Z,1
2022-08-02T01:00:02.230Z,1
2022-08-02T01:02:16.259Z,1
2022-08-02T01:04:01.801Z,1
2022-08-02T01:06:12.027Z,1
2022-08-02T01:10:11.961Z,1
2022-08-02T01:12:06.903Z,1
2022-08-02T01:14:05.387Z,1
2022-08-02T01:16:01.789Z,1
2022-08-02T01:18:05.363Z,1
2022-08-02T01:20:02.581Z,1
2022-08-02T01:22:12.225Z,1
2022-08-02T01:24:08.424Z,1
2022-08-02T01:26:02.085Z,1
2022-08-02T01:28:01.787Z,1
2022-08-02T01:30:02.034Z,1
2022-08-02T01:32:01.167Z,1
2022-08-02T01:34:08.803Z,1
2022-08-02T01:36:02.086Z,1
2022-08-02T01:38:02.142Z,1
2022-08-02T01:40:05.101Z,1
2022-08-02T01:42:05.230Z,1
2022-08-02T01:44:05.309Z,1
2022-08-02T01:46:01.862Z,1
2022-08-02T01:48:08.612Z,1
2022-08-02T01:50:05.311Z,1
2022-08-02T01:52:01.281Z,1
2022-08-02T01:54:05.276Z,1
2022-08-02T01:56:02.100Z,1
2022-08-02T01:58:02.240Z,1
2022-08-02T02:00:02.001Z,1
2022-08-02T02:02:01.652Z,1
2022-08-02T02:04:02.212Z,1
2022-08-02T02:06:01.376Z,1
2022-08-02T02:08:02.091Z,1
2022-08-02T02:10:05.099Z,1
2022-08-02T02:12:03.826Z,1
2022-08-02T02:16:05.263Z,1
2022-08-02T02:18:12.109Z,1
2022-08-02T02:20:01.679Z,1
2022-08-02T02:22:01.626Z,1
2022-08-02T02:24:01.866Z,1
2022-08-02T02:26:08.336Z,1
2022-08-02T02:28:12.119Z,1
2022-08-02T02:30:05.007Z,1
2022-08-02T02:32:02.327Z,1
2022-08-02T02:34:02.243Z,1
2022-08-02T02:36:02.363Z,1
2022-08-02T02:38:05.384Z,1
2022-08-02T02:40:02.212Z,1
2022-08-02T02:42:05.169Z,1
2022-08-02T02:44:01.282Z,1
2022-08-02T02:46:02.162Z,1
2022-08-02T02:48:08.508Z,1
2022-08-02T02:50:02.210Z,1
2022-08-02T02:54:26.641Z,0
2022-08-02T02:56:05.380Z,0
2022-08-02T02:58:01.956Z,0
2022-08-02T03:00:02.557Z,0
2022-08-02T03:02:05.368Z,0
2022-08-02T03:04:02.482Z,0.1
2022-08-02T03:06:01.817Z,0.1
2022-08-02T03:08:02.029Z,0.2
2022-08-02T03:10:05.419Z,0.2
2022-08-02T03:12:01.885Z,0.3
2022-08-02T03:14:01.605Z,0.4
2022-08-02T03:16:05.322Z,0.6
2022-08-02T03:18:01.962Z,0.8
2022-08-02T03:20:02.144Z,1.2
2022-08-02T03:22:02.155Z,1.6
2022-08-02T03:24:01.707Z,2.3
2022-08-02T03:26:02.357Z,3.3
2022-08-02T03:28:01.830Z,4.7
2022-08-02T03:30:08.476Z,6.7
2022-08-02T03:32:01.757Z,9.5
2022-08-02T03:34:05.294Z,13.5
2022-08-02T03:36:05.327Z,18.2
2022-08-02T03:38:01.835Z,24.5
2022-08-02T03:40:02.210Z,33.1
2022-08-02T03:42:05.248Z,44.7
2022-08-02T03:44:02.253Z,57.4
2022-08-02T03:46:02.271Z,73.7
2022-08-02T03:48:05.395Z,90
2022-08-02T03:50:02.199Z,109.9
2022-08-02T03:52:01.901Z,134.3
2022-08-02T03:54:02.136Z,156
2022-08-02T03:56:01.787Z,181.3
2022-08-02T03:58:02.333Z,210.6
2022-08-02T04:00:01.707Z,244.7
2022-08-02T04:02:01.993Z,270.4
2022-08-02T04:04:01.912Z,314.2
2022-08-02T04:06:04.172Z,347.2
2022-08-02T04:08:36.554Z,383.8
2022-08-02T04:13:06.747Z,424.1
2022-08-02T04:13:14.181Z,468.7
2022-08-02T04:15:16.860Z,518
2022-08-02T04:17:09.705Z,572.5
2022-08-02T04:19:14.783Z,601.8
2022-08-02T04:21:16.737Z,632.7
2022-08-02T04:23:16.207Z,665.1
2022-08-02T04:25:09.632Z,699.2
2022-08-02T04:27:19.531Z,735.1
2022-08-02T04:29:09.428Z,772.8
2022-08-02T04:31:09.664Z,812.4
2022-08-02T04:33:10.597Z,854.1
2022-08-02T04:35:20.677Z,854.1
2022-08-02T04:37:10.004Z,897.8
2022-08-02T04:39:10.027Z,943.9
2022-08-02T04:41:13.100Z,992.3
2022-08-02T04:43:09.596Z,1043.1
2022-08-02T04:47:22.469Z,1096.6
2022-08-02T04:49:10.090Z,1152.9
2022-08-02T04:51:09.811Z,1152.9
2022-08-02T04:53:10.544Z,1212
2022-08-02T04:55:09.702Z,1212
2022-08-02T04:59:09.334Z,1274.1
2022-08-02T05:01:09.693Z,1274.1
2022-08-02T05:03:16.251Z,1339.4
2022-08-02T05:05:10.322Z,1339.4
2022-08-02T05:07:13.675Z,1408.1
2022-08-02T05:09:13.943Z,1480.3
2022-08-02T05:11:09.649Z,1480.3
2022-08-02T05:13:13.522Z,1556.2
2022-08-02T05:19:13.426Z,1636
2022-08-02T05:21:09.918Z,1719.9
2022-08-02T05:23:17.749Z,1719.9
2022-08-02T05:25:09.834Z,1719.9
2022-08-02T05:27:17.293Z,1808
2022-08-02T05:29:09.334Z,1808
2022-08-02T05:31:13.753Z,1900.7
2022-08-02T05:33:09.718Z,1900.7
2022-08-02T05:35:09.558Z,1900.7
2022-08-02T05:37:09.887Z,1998.2
2022-08-02T05:39:11.449Z,1998.2
2022-08-02T05:41:13.296Z,1998.2
2022-08-02T05:43:09.735Z,2100.6
2022-08-02T05:45:09.553Z,2100.6
2022-08-02T05:47:09.496Z,2100.6
2022-08-02T05:49:13.706Z,2208.3
2022-08-02T05:51:09.704Z,2208.3
2022-08-02T05:53:09.710Z,2321.6
2022-08-02T05:55:15.480Z,2321.6
2022-08-02T05:57:13.557Z,2440.6
2022-08-02T05:59:09.758Z,2440.6
2022-08-02T06:03:09.981Z,2565.7
2022-08-02T06:05:09.807Z,2565.7
2022-08-02T06:07:12.341Z,2565.7
2022-08-02T06:09:09.765Z,2565.7
2022-08-02T06:11:13.668Z,2565.7
2022-08-02T06:13:09.641Z,2697.3
2022-08-02T06:15:13.310Z,2697.3
2022-08-02T06:17:09.614Z,2835.6
2022-08-02T06:19:09.726Z,2835.6
2022-08-02T06:22:34.179Z,2835.6
2022-08-02T06:23:13.362Z,2835.6
2022-08-02T06:25:11.936Z,2835.6
2022-08-02T06:27:09.612Z,2835.6
2022-08-02T06:29:09.640Z,2981
2022-08-02T06:31:13.767Z,3641
2022-08-02T06:33:09.744Z,4023.9
2022-08-02T06:35:09.407Z,3641
2022-08-02T06:37:09.866Z,3294.5
2022-08-02T06:39:12.777Z,3294.5
2022-08-02T06:41:09.783Z,3294.5
2022-08-02T06:43:09.829Z,3294.5
2022-08-02T06:45:14.740Z,3463.4
2022-08-02T06:47:12.905Z,3463.4
2022-08-02T06:49:09.565Z,3463.4
2022-08-02T06:51:15.693Z,3463.4
2022-08-02T06:53:09.557Z,3463.4
2022-08-02T06:55:09.477Z,3641
2022-08-02T06:57:09.662Z,3641
2022-08-02T06:59:10.050Z,3294.5
2022-08-02T07:01:09.579Z,3294.5
2022-08-02T07:03:13.842Z,3463.4
2022-08-02T07:05:09.778Z,3641
2022-08-02T07:07:09.812Z,3641
2022-08-02T07:09:20.828Z,3641
2022-08-02T07:11:10.656Z,3641
2022-08-02T07:13:10.113Z,3827.6
2022-08-02T07:15:11.371Z,4023.9
2022-08-02T07:17:09.664Z,3827.6
2022-08-02T07:19:16.825Z,3827.6
2022-08-02T07:21:13.458Z,3827.6
2022-08-02T07:23:09.736Z,4023.9
2022-08-02T07:25:10.316Z,4023.9
2022-08-02T07:29:09.584Z,4230.2
2022-08-02T07:31:13.081Z,4230.2
2022-08-02T07:33:09.779Z,4230.2
2022-08-02T07:35:09.677Z,4230.2
2022-08-02T07:37:19.495Z,4230.2
2022-08-02T07:39:10.262Z,4230.2
2022-08-02T07:41:11.421Z,4023.9
2022-08-02T07:43:09.708Z,4447.1
2022-08-02T07:45:09.950Z,4675.1
2022-08-02T07:47:17.079Z,4675.1
2022-08-02T07:49:09.655Z,4675.1
2022-08-02T07:51:17.169Z,4675.1
2022-08-02T07:53:13.647Z,4914.8
2022-08-02T07:55:13.261Z,4914.8
2022-08-02T07:59:13.899Z,5166.8
2022-08-02T08:01:13.529Z,5166.8
2022-08-02T08:03:10.066Z,5166.8
2022-08-02T08:05:13.889Z,5431.7
2022-08-02T08:07:09.821Z,5431.7
2022-08-02T08:09:09.671Z,5710.1
2022-08-02T08:11:10.732Z,5710.1
2022-08-02T08:13:09.666Z,5710.1
2022-08-02T08:15:10.071Z,5431.7
2022-08-02T08:17:17.151Z,5710.1
2022-08-02T08:19:09.690Z,5710.1
2022-08-02T08:21:09.764Z,6002.9
2022-08-02T08:23:13.105Z,6002.9
2022-08-02T08:25:13.741Z,6002.9
2022-08-02T08:27:09.664Z,6002.9
2022-08-02T08:29:16.029Z,6002.9
2022-08-02T08:31:13.758Z,5431.7
2022-08-02T08:35:12.751Z,6002.9
2022-08-02T08:37:09.893Z,6002.9
2022-08-02T08:39:13.369Z,5710.1
2022-08-02T08:41:12.971Z,6002.9
2022-08-02T08:43:09.865Z,6310.7
2022-08-02T08:45:10.223Z,6310.7
2022-08-02T08:49:09.440Z,6310.7
2022-08-02T08:51:09.944Z,6310.7
2022-08-02T08:53:16.165Z,6634.2
2022-08-02T08:55:09.930Z,6634.2
2022-08-02T08:57:14.058Z,6974.4
2022-08-02T08:59:09.986Z,7332
2022-08-02T09:01:09.919Z,5431.7
2022-08-02T09:03:13.396Z,8103.1
2022-08-02T09:05:09.906Z,8103.1
2022-08-02T09:07:14.148Z,8103.1
2022-08-02T09:09:09.621Z,8518.5
2022-08-02T09:11:10.045Z,8103.1
2022-08-02T09:13:31.397Z,8103.1
2022-08-02T09:15:14.304Z,7707.9
2022-08-02T09:17:13.384Z,7707.9
2022-08-02T09:19:09.973Z,5710.1
2022-08-02T09:21:09.867Z,8103.1
2022-08-02T09:23:09.739Z,9414.4
2022-08-02T09:25:17.834Z,10404.6
2022-08-02T09:27:13.381Z,10404.6
2022-08-02T09:29:13.872Z,9897.1
2022-08-02T09:31:09.869Z,9897.1
2022-08-02T09:35:13.767Z,9414.4
2022-08-02T09:37:09.741Z,9897.1
2022-08-02T09:39:11.211Z,9414.4
2022-08-02T09:41:09.533Z,8955.3
2022-08-02T09:43:09.648Z,9414.4
2022-08-02T09:45:13.520Z,9897.1
2022-08-02T09:47:09.824Z,9897.1
2022-08-02T09:49:11.205Z,9414.4
2022-08-02T09:51:09.613Z,8955.3
2022-08-02T09:53:09.672Z,8955.3
2022-08-02T09:55:10.004Z,8955.3
2022-08-02T09:57:20.005Z,9414.4
2022-08-02T09:59:09.935Z,9414.4
2022-08-02T10:01:14.857Z,9897.1
2022-08-02T10:03:11.159Z,9897.1
2022-08-02T10:05:09.720Z,9897.1
2022-08-02T10:07:09.769Z,6634.2
2022-08-02T10:09:09.623Z,6634.2
2022-08-02T10:11:11.136Z,9414.4
2022-08-02T10:13:10.048Z,8955.3
2022-08-02T10:15:10.264Z,8955.3
2022-08-02T10:17:09.625Z,8518.5
2022-08-02T10:19:13.615Z,8518.5
2022-08-02T10:21:09.690Z,8955.3
2022-08-02T10:23:17.636Z,9414.4
2022-08-02T10:25:13.980Z,8955.3
2022-08-02T10:27:09.990Z,8955.3
2022-08-02T10:29:14.182Z,8955.3
2022-08-02T10:33:09.878Z,9414.4
2022-08-02T10:35:18.339Z,9414.4
2022-08-02T10:37:09.652Z,9414.4
2022-08-02T10:39:09.738Z,9414.4
2022-08-02T10:41:09.988Z,9897.1
2022-08-02T10:43:09.752Z,8955.3
2022-08-02T10:45:09.850Z,8955.3
2022-08-02T10:47:10.173Z,9414.4
2022-08-02T10:49:37.803Z,9414.4
2022-08-02T10:51:13.732Z,9414.4
2022-08-02T10:53:13.908Z,9414.4
2022-08-02T10:55:13.285Z,9414.4
2022-08-02T10:57:15.183Z,8955.3
2022-08-02T10:59:09.911Z,8518.5
2022-08-02T11:01:10.106Z,8518.5
2022-08-02T11:03:13.321Z,8518.5
2022-08-02T11:05:09.658Z,8103.1
2022-08-02T11:07:10.748Z,5166.8
2022-08-02T11:09:13.889Z,5166.8
2022-08-02T11:11:09.768Z,5431.7
2022-08-02T11:13:09.393Z,8518.5
2022-08-02T11:15:18.058Z,8955.3
2022-08-02T11:17:09.727Z,9414.4
2022-08-02T11:19:13.372Z,9414.4
2022-08-02T11:21:09.777Z,8955.3
2022-08-02T11:23:13.731Z,8955.3
2022-08-02T11:25:09.367Z,8955.3
2022-08-02T11:31:33.401Z,8955.3
2022-08-02T11:32:04.120Z,8955.3
2022-08-02T11:34:07.815Z,8955.3
2022-08-02T11:36:04.614Z,8955.3
2022-08-02T11:38:04.036Z,8955.3
2022-08-02T11:40:04.017Z,8518.5
2022-08-02T11:42:07.337Z,5710.1
2022-08-02T11:44:04.950Z,5710.1
2022-08-02T11:46:15.341Z,5710.1
2022-08-02T11:48:04.892Z,6310.7
2022-08-02T11:50:04.150Z,8955.3
2022-08-02T11:52:07.480Z,8955.3
2022-08-02T11:54:04.915Z,8955.3
2022-08-02T11:56:04.146Z,8518.5
2022-08-02T11:58:07.492Z,8518.5
2022-08-02T12:00:11.807Z,8518.5
2022-08-02T12:02:04.014Z,8103.1
2022-08-02T12:04:03.899Z,8518.5
2022-08-02T12:06:06.315Z,8518.5
2022-08-02T12:08:04.895Z,8955.3
2022-08-02T12:10:04.332Z,9414.4
2022-08-02T12:12:07.312Z,8955.3
2022-08-02T12:16:11.533Z,8518.5
2022-08-02T12:18:04.130Z,8955.3
2022-08-02T12:20:07.765Z,8518.5
2022-08-02T12:22:07.083Z,8955.3
2022-08-02T12:24:03.876Z,8518.5
2022-08-02T12:26:04.093Z,8518.5
2022-08-02T12:28:05.102Z,8518.5
2022-08-02T12:30:07.458Z,8103.1
2022-08-02T12:32:03.885Z,8518.5
2022-08-02T12:34:11.690Z,8518.5
2022-08-02T12:36:05.101Z,8518.5
2022-08-02T12:38:04.092Z,8955.3
2022-08-02T12:40:04.812Z,8955.3
2022-08-02T12:42:04.547Z,8518.5
2022-08-02T12:44:04.027Z,5431.7
2022-08-02T12:48:04.046Z,8103.1
2022-08-02T12:52:06.724Z,8518.5
2022-08-02T12:54:04.902Z,8518.5
2022-08-02T12:56:04.237Z,8518.5
2022-08-02T12:58:05.551Z,8103.1
2022-08-02T13:00:11.581Z,8518.5
2022-08-02T13:02:04.062Z,8518.5
2022-08-02T13:04:13.463Z,8103.1
2022-08-02T13:06:17.309Z,8518.5
2022-08-02T13:10:10.696Z,8103.1
2022-08-02T13:12:08.222Z,8103.1
2022-08-02T13:14:03.918Z,8103.1
2022-08-02T13:16:03.989Z,8103.1
2022-08-02T13:18:10.302Z,7707.9
2022-08-02T13:20:04.651Z,7707.9
2022-08-02T13:22:04.815Z,7707.9
2022-08-02T13:24:20.903Z,7707.9
2022-08-02T13:26:07.485Z,7707.9
2022-08-02T13:28:04.015Z,7707.9
2022-08-02T13:30:04.208Z,8518.5
2022-08-02T13:32:10.555Z,8103.1
2022-08-02T13:34:03.938Z,8103.1
2022-08-02T13:36:09.024Z,4230.2
2022-08-02T13:38:04.342Z,8103.1
2022-08-02T13:40:21.925Z,8103.1
2022-08-02T13:46:07.426Z,7707.9
2022-08-02T13:48:10.714Z,7707.9
2022-08-02T13:50:03.997Z,8103.1
2022-08-02T13:52:03.839Z,7707.9
2022-08-02T13:54:04.037Z,7707.9
2022-08-02T13:56:03.937Z,7707.9
2022-08-02T14:00:07.573Z,7707.9
2022-08-02T14:02:04.585Z,7707.9
2022-08-02T14:04:05.674Z,7707.9
2022-08-02T14:06:05.078Z,7332
2022-08-02T14:08:04.847Z,7332
2022-08-02T14:10:04.054Z,6974.4
2022-08-02T14:12:10.814Z,7332
2022-08-02T14:14:05.289Z,7332
2022-08-02T14:16:08.124Z,7332
2022-08-02T14:18:11.204Z,7332
2022-08-02T14:20:03.855Z,7332
2022-08-02T14:22:10.608Z,6974.4
2022-08-02T14:24:07.066Z,6974.4
2022-08-02T14:26:10.093Z,6974.4
2022-08-02T14:28:04.175Z,7332
2022-08-02T14:30:04.285Z,6634.2
2022-08-02T14:32:03.806Z,6974.4
2022-08-02T14:34:03.949Z,6974.4
2022-08-02T14:36:07.261Z,6974.4
2022-08-02T14:38:04.167Z,6974.4
2022-08-02T14:40:06.971Z,6634.2
2022-08-02T14:42:05.392Z,6634.2
2022-08-02T14:44:08.571Z,6974.4
2022-08-02T14:46:03.988Z,6974.4
2022-08-02T14:48:03.917Z,3294.5
2022-08-02T14:50:05.544Z,2981
2022-08-02T14:52:03.985Z,3827.6
2022-08-02T14:54:05.409Z,6310.7
2022-08-02T14:56:04.320Z,6310.7
2022-08-02T14:58:03.891Z,6002.9
2022-08-02T15:00:04.069Z,6310.7
2022-08-02T15:02:04.906Z,6634.2
2022-08-02T15:04:07.522Z,4023.9
2022-08-02T15:06:05.555Z,6310.7
2022-08-02T15:08:04.040Z,6634.2
2022-08-02T15:10:04.173Z,6634.2
2022-08-02T15:12:08.504Z,6002.9
2022-08-02T15:14:04.049Z,6310.7
2022-08-02T15:16:10.623Z,6002.9
2022-08-02T15:18:04.097Z,5710.1
2022-08-02T15:20:11.365Z,5710.1
2022-08-02T15:22:05.017Z,5710.1
2022-08-02T15:24:05.226Z,5431.7
2022-08-02T15:26:07.551Z,5166.8
2022-08-02T15:28:03.957Z,5166.8
2022-08-02T15:30:04.148Z,5431.7
2022-08-02T15:32:05.151Z,5431.7
2022-08-02T15:34:05.202Z,5431.7
2022-08-02T15:36:07.478Z,5710.1
2022-08-02T15:38:05.705Z,5710.1
2022-08-02T15:40:11.700Z,5710.1
2022-08-02T15:42:05.332Z,5710.1
2022-08-02T15:44:07.291Z,5431.7
2022-08-02T15:46:03.916Z,5431.7
2022-08-02T15:48:04.035Z,5166.8
2022-08-02T15:50:08.460Z,5431.7
2022-08-02T15:52:07.531Z,4914.8
2022-08-02T15:54:05.402Z,4914.8
2022-08-02T15:56:12.581Z,5431.7
2022-08-02T15:58:04.390Z,5166.8
2022-08-02T16:00:14.161Z,5431.7
2022-08-02T16:02:05.259Z,5166.8
2022-08-02T16:06:03.979Z,5166.8
2022-08-02T16:08:03.920Z,4914.8
2022-08-02T16:10:05.334Z,4914.8
2022-08-02T16:12:04.164Z,4914.8
2022-08-02T16:14:04.069Z,4447.1
2022-08-02T16:16:03.945Z,4230.2
2022-08-02T16:18:03.947Z,4230.2
2022-08-02T16:20:04.953Z,4447.1
2022-08-02T16:22:04.892Z,4023.9
2022-08-02T16:24:03.894Z,3827.6
2022-08-02T16:26:04.923Z,3827.6
2022-08-02T16:28:08.340Z,3641
2022-08-02T16:30:04.151Z,3294.5
2022-08-02T16:32:03.931Z,3463.4
2022-08-02T16:34:05.186Z,3294.5
2022-08-02T16:36:04.023Z,3641
2022-08-02T16:38:04.057Z,3641
2022-08-02T16:40:04.359Z,3294.5
2022-08-02T16:42:07.318Z,3133.8
2022-08-02T16:44:04.001Z,3133.8
2022-08-02T16:46:03.919Z,3133.8
2022-08-02T16:48:05.534Z,2565.7
2022-08-02T16:50:10.219Z,2565.7
2022-08-02T16:52:03.908Z,2321.6
2022-08-02T16:54:03.909Z,2208.3
2022-08-02T16:56:03.894Z,2208.3
2022-08-02T16:58:05.260Z,2208.3
2022-08-02T17:00:04.606Z,2440.6
2022-08-02T17:02:11.236Z,2835.6
2022-08-02T17:04:03.898Z,2440.6
2022-08-02T17:06:03.933Z,2440.6
2022-08-02T17:08:06.745Z,2440.6
2022-08-02T17:10:06.301Z,2321.6
2022-08-02T17:12:14.980Z,2321.6
2022-08-02T17:14:07.125Z,2440.6
2022-08-02T17:16:19.997Z,2321.6
2022-08-02T17:18:05.007Z,2565.7
2022-08-02T17:20:03.937Z,2440.6
2022-08-02T17:22:03.964Z,2440.6
2022-08-02T17:26:07.476Z,3133.8
2022-08-02T17:28:07.515Z,3294.5
2022-08-02T17:30:10.941Z,3294.5
2022-08-02T17:32:09.155Z,2981
2022-08-02T17:34:04.194Z,2697.3
2022-08-02T17:36:08.092Z,2835.6
2022-08-02T17:38:10.239Z,2835.6
2022-08-02T17:40:07.479Z,2565.7
2022-08-02T17:42:05.049Z,2440.6
2022-08-02T17:46:11.784Z,1998.2
2022-08-02T17:50:05.384Z,1808
2022-08-02T17:52:49.730Z,1636
2022-08-02T17:54:03.917Z,1556.2
2022-08-02T17:56:03.918Z,1480.3
2022-08-02T17:58:03.922Z,1339.4
2022-08-02T18:00:04.831Z,1274.1
2022-08-02T18:02:08.064Z,1212
2022-08-02T18:04:07.298Z,1096.6
2022-08-02T18:06:07.087Z,1043.1
2022-08-02T18:08:08.416Z,943.9
2022-08-02T18:10:08.120Z,897.8
2022-08-02T18:12:12.212Z,812.4
2022-08-02T18:14:04.760Z,699.2
2022-08-02T18:16:20.820Z,665.1
2022-08-02T18:18:07.434Z,632.7
2022-08-02T18:20:10.851Z,601.8
2022-08-02T18:22:07.042Z,544.6
2022-08-02T18:24:03.918Z,518
2022-08-02T18:26:04.186Z,468.7
2022-08-02T18:28:11.666Z,424.1
2022-08-02T18:30:05.123Z,383.8
2022-08-02T18:32:04.182Z,347.2
2022-08-02T18:34:07.483Z,314.2
2022-08-02T18:36:07.416Z,270.4
2022-08-02T18:38:05.005Z,232.8
2022-08-02T18:40:04.988Z,200.3
2022-08-02T18:42:04.094Z,164
2022-08-02T18:44:05.377Z,141.2
2022-08-02T18:46:04.889Z,127.7
2022-08-02T18:48:07.384Z,115.6
2022-08-02T18:50:05.011Z,104.6
2022-08-02T18:52:04.185Z,94.6
2022-08-02T18:54:04.820Z,85.6
2022-08-02T18:56:04.268Z,73.7
2022-08-02T18:58:19.155Z,60.3
2022-08-02T19:00:08.073Z,49.4
2022-08-02T19:02:08.502Z,38.5
2022-08-02T19:04:03.868Z,30
2022-08-02T19:06:08.446Z,21.1
2022-08-02T19:08:07.494Z,15.6
2022-08-02T19:10:10.700Z,11
2022-08-02T19:12:03.943Z,7.8
2022-08-02T19:14:07.260Z,5.8
2022-08-02T19:16:04.778Z,4.1
2022-08-02T19:18:07.493Z,3
2022-08-02T19:20:03.929Z,2.2
2022-08-02T19:22:17.177Z,1.6
2022-08-02T19:24:10.682Z,1.2
2022-08-02T19:26:07.464Z,0.9
2022-08-02T19:28:04.027Z,0.7
2022-08-02T19:30:04.943Z,0.4
2022-08-02T19:32:03.984Z,0.3
2022-08-02T19:34:06.909Z,0.3
2022-08-02T19:36:15.360Z,0.2
2022-08-02T19:38:03.964Z,0.1
2022-08-02T19:40:14.700Z,0.1
2022-08-02T19:44:22.396Z,0
2022-08-02T19:46:04.071Z,0
2022-08-02T19:48:08.420Z,0
2022-08-02T19:50:07.937Z,0
2022-08-02T19:52:20.341Z,0
2022-08-02T19:54:04.264Z,0
2022-08-02T19:56:04.867Z,0
2022-08-02T19:58:04.088Z,0
2022-08-02T20:00:04.202Z,1
2022-08-02T20:02:03.957Z,1
2022-08-02T20:04:04.924Z,1
2022-08-02T20:06:04.250Z,1
2022-08-02T20:08:04.079Z,1
2022-08-02T20:10:05.165Z,1
2022-08-02T20:12:04.085Z,1
2022-08-02T20:14:11.542Z,1
2022-08-02T20:18:03.964Z,1
2022-08-02T20:20:07.475Z,1
2022-08-02T20:22:04.125Z,1
2022-08-02T20:24:03.954Z,1
2022-08-02T20:26:10.611Z,1
2022-08-02T20:28:05.328Z,1
2022-08-02T20:30:05.189Z,1
2022-08-02T20:32:04.833Z,1
2022-08-02T20:34:04.365Z,1
2022-08-02T20:36:04.799Z,1
2022-08-02T20:38:05.191Z,1
2022-08-02T20:40:04.233Z,1
2022-08-02T20:44:04.087Z,1
2022-08-02T20:46:07.316Z,1
2022-08-02T20:48:03.916Z,1
2022-08-02T20:50:08.125Z,1
2022-08-02T20:52:04.836Z,1
2022-08-02T20:54:07.527Z,1
2022-08-02T20:56:04.781Z,1
2022-08-02T20:58:05.660Z,1
2022-08-02T21:00:08.022Z,1
2022-08-02T21:02:03.998Z,1
2022-08-02T21:04:04.050Z,1
2022-08-02T21:06:07.001Z,1
2022-08-02T21:08:07.517Z,1
2022-08-02T21:10:03.948Z,1
2022-08-02T21:12:04.160Z,1
2022-08-02T21:14:06.187Z,1
2022-08-02T21:18:08.212Z,1
2022-08-02T21:20:07.315Z,1
2022-08-02T21:22:05.220Z,1
2022-08-02T21:24:05.095Z,1
2022-08-02T21:26:04.201Z,1
2022-08-02T21:28:04.037Z,1
2022-08-02T21:30:07.669Z,1
2022-08-02T21:32:03.930Z,1
2022-08-02T21:34:22.256Z,1
2022-08-02T21:36:05.045Z,1
2022-08-02T21:38:04.101Z,1
2022-08-02T21:40:03.950Z,1
2022-08-02T21:42:04.335Z,1
2022-08-02T21:46:04.181Z,1
2022-08-02T21:48:04.877Z,1
2022-08-02T21:50:09.101Z,1
2022-08-02T21:52:03.863Z,1
2022-08-02T21:54:17.138Z,1
2022-08-02T21:56:07.464Z,1
2022-08-02T21:58:07.470Z,1
2022-08-02T22:00:07.790Z,1
2022-08-02T22:02:05.119Z,1
2022-08-02T22:04:03.951Z,1
2022-08-02T22:06:05.417Z,1
2022-08-02T22:10:04.036Z,1
2022-08-02T22:12:03.957Z,1
2022-08-02T22:14:04.031Z,1
2022-08-02T22:16:10.589Z,1
2022-08-02T22:18:14.348Z,1
2022-08-02T22:20:03.955Z,1
2022-08-02T22:22:08.023Z,1
2022-08-02T22:24:04.874Z,1
2022-08-02T22:26:04.900Z,1
2022-08-02T22:30:05.227Z,1
2022-08-02T22:32:10.661Z,1
2022-08-02T22:34:03.978Z,1
2022-08-02T22:36:04.074Z,1
2022-08-02T22:38:14.384Z,1
2022-08-02T22:40:06.123Z,1
2022-08-02T22:42:05.661Z,1
2022-08-02T22:44:03.975Z,1
2022-08-02T22:46:05.210Z,1
2022-08-02T22:48:04.000Z,1
2022-08-02T22:50:07.177Z,1
2022-08-02T22:52:04.021Z,1
2022-08-02T22:54:04.088Z,1
2022-08-02T22:56:08.547Z,1
2022-08-02T22:58:05.139Z,1
2022-08-02T22:58:42.497Z,2440.6
2022-08-02T22:59:09.098Z,1
2022-08-02T23:00:07.450Z,1
2022-08-02T23:02:04.021Z,1
2022-08-02T23:04:03.962Z,1
2022-08-02T23:06:08.310Z,1
2022-08-02T23:08:11.617Z,1
2022-08-02T23:10:04.157Z,1
2022-08-02T23:12:04.111Z,1
2022-08-02T23:14:04.088Z,1
2022-08-02T23:16:03.957Z,1
2022-08-02T23:18:03.970Z,1
2022-08-02T23:20:08.041Z,1
2022-08-02T23:22:04.208Z,1
2022-08-02T23:24:04.850Z,1
2022-08-02T23:26:04.020Z,1
2022-08-02T23:28:03.977Z,1
2022-08-02T23:30:04.877Z,1
2022-08-02T23:32:11.614Z,1
2022-08-02T23:34:04.999Z,1
2022-08-02T23:36:07.321Z,1
2022-08-02T23:38:03.892Z,1
2022-08-02T23:40:10.656Z,1
2022-08-02T23:42:05.187Z,1
2022-08-02T23:44:13.326Z,1
2022-08-02T23:46:04.017Z,1
2022-08-02T23:48:03.985Z,1
2022-08-02T23:50:04.324Z,1
2022-08-02T23:52:04.086Z,1
2022-08-02T23:54:04.061Z,1
2022-08-02T23:56:03.932Z,1
2022-08-02T23:58:03.966Z,1
